createdAt,value
2022-11-24T03:45:45.827Z,82.32
2022-11-24T03:46:39.941Z,82.32
2022-11-24T03:47:39.806Z,82.44
2022-11-24T03:48:39.948Z,82.49
2022-11-24T03:49:39.766Z,82.44
2022-11-24T03:50:39.842Z,82.45
2022-11-24T03:51:39.741Z,82.44
2022-11-24T03:52:39.804Z,82.51
2022-11-24T03:53:39.884Z,82.25
2022-11-24T03:54:39.704Z,82.29
2022-11-24T03:55:39.840Z,82.19
2022-11-24T03:56:39.671Z,82.11
2022-11-24T03:57:39.741Z,82.02
2022-11-24T03:58:39.650Z,81.89
2022-11-24T03:59:39.730Z,81.86
2022-11-24T04:00:39.660Z,81.93
2022-11-24T04:01:39.784Z,81.88
2022-11-24T04:02:39.616Z,81.91
2022-11-24T04:03:39.661Z,81.91
2022-11-24T04:04:39.573Z,81.77
2022-11-24T04:05:39.654Z,81.71
2022-11-24T04:06:39.539Z,81.74
2022-11-24T04:07:39.716Z,81.81
2022-11-24T04:08:39.520Z,81.75
2022-11-24T04:09:39.609Z,81.69
2022-11-24T04:10:39.995Z,81.31
2022-11-24T04:11:39.470Z,81.40
2022-11-24T04:12:39.548Z,81.58
2022-11-24T04:13:39.447Z,81.66
2022-11-24T04:14:39.531Z,81.41
2022-11-24T04:15:39.537Z,81.61
2022-11-24T04:16:39.491Z,81.41
2022-11-24T04:17:39.399Z,81.28
2022-11-24T04:18:39.467Z,81.33
2022-11-24T04:19:39.376Z,81.53
2022-11-24T04:20:39.447Z,81.51
2022-11-24T04:21:39.335Z,81.56
2022-11-24T04:22:39.407Z,81.53
2022-11-24T04:23:39.311Z,81.54
2022-11-24T04:24:39.415Z,81.59
2022-11-24T04:25:39.291Z,81.63
2022-11-24T04:26:39.346Z,81.64
2022-11-24T04:27:39.265Z,81.69
2022-11-24T04:28:39.314Z,81.66
2022-11-24T04:29:39.248Z,81.33
2022-11-24T04:30:39.295Z,81.38
2022-11-24T04:31:39.299Z,81.33
2022-11-24T04:32:39.267Z,81.35
2022-11-24T04:33:39.173Z,81.15
2022-11-24T04:34:39.226Z,81.07
2022-11-24T04:35:39.141Z,81.01
2022-11-24T04:36:39.218Z,81.07
2022-11-24T04:37:39.129Z,81.08
2022-11-24T04:39:22.853Z,81.05
2022-11-24T04:39:39.085Z,80.91
2022-11-24T04:40:39.164Z,81.03
2022-11-24T04:41:39.074Z,80.90
2022-11-24T04:42:39.146Z,80.86
2022-11-24T05:09:58.531Z,80.25
2022-11-24T05:10:38.755Z,80.31
2022-11-24T06:20:36.816Z,85.69
2022-11-24T06:21:37.804Z,85.75
2022-11-24T06:22:37.707Z,86.11
2022-11-24T06:23:37.871Z,86.01
2022-11-24T06:24:37.671Z,86.15
2022-11-24T06:25:37.849Z,86.08
2022-11-24T06:26:37.639Z,86.15
2022-11-24T06:27:37.711Z,86.15
2022-11-24T06:28:37.623Z,86.26
2022-11-24T06:29:37.696Z,86.36
2022-11-24T06:30:37.587Z,86.34
2022-11-24T06:31:37.776Z,86.61
2022-11-24T06:32:37.573Z,86.48
2022-11-24T06:33:37.636Z,86.54
2022-11-24T06:34:37.628Z,86.47
2022-11-24T06:35:37.613Z,86.56
2022-11-24T06:36:37.519Z,86.75
2022-11-24T06:37:37.592Z,86.89
2022-11-24T06:38:37.494Z,86.99
2022-11-24T06:39:37.551Z,87.03
2022-11-24T06:40:37.493Z,87.11
2022-11-24T06:41:37.612Z,87.14
2022-11-24T06:42:37.439Z,87.38
2022-11-24T06:43:37.498Z,87.61
2022-11-24T06:44:37.396Z,87.94
2022-11-24T06:45:37.761Z,88.08
2022-11-24T06:46:37.379Z,88.16
2022-11-24T06:47:37.468Z,88.48
2022-11-24T06:48:37.351Z,88.53
2022-11-24T06:49:37.416Z,88.49
2022-11-24T06:50:37.327Z,88.70
2022-11-24T07:01:36.284Z,89.36
2022-11-24T07:03:36.217Z,89.11
2022-11-24T07:05:36.097Z,88.81
2022-11-24T07:06:37.193Z,89.00
2022-11-24T07:07:37.125Z,88.96
2022-11-24T07:08:37.198Z,88.95
2022-11-24T07:09:37.081Z,88.99
2022-11-24T07:10:37.137Z,88.63
2022-11-24T07:11:37.038Z,88.20
2022-11-24T07:12:37.115Z,88.13
2022-11-24T07:13:37.022Z,88.10
2022-11-24T07:14:37.380Z,88.10
2022-11-24T07:15:37.004Z,88.13
2022-11-24T07:16:37.102Z,88.25
2022-11-24T07:17:36.977Z,88.29
2022-11-24T07:18:37.046Z,88.16
2022-11-24T07:19:36.951Z,88.31
2022-11-24T07:20:37.044Z,88.39
2022-11-24T07:21:36.909Z,88.49
2022-11-24T07:22:36.971Z,88.51
2022-11-24T07:23:36.892Z,88.20
2022-11-24T07:24:37.273Z,88.37
2022-11-24T07:25:36.959Z,88.34
2022-11-24T07:26:36.918Z,88.36
2022-11-24T07:27:36.840Z,88.30
2022-11-24T07:28:36.919Z,88.17
2022-11-24T07:29:36.801Z,88.22
2022-11-24T07:30:36.861Z,88.31
2022-11-24T07:31:36.844Z,88.34
2022-11-24T07:32:37.061Z,88.43
2022-11-24T07:33:36.761Z,88.42
2022-11-24T07:34:37.192Z,88.51
2022-11-24T07:35:36.719Z,88.40
2022-11-24T07:36:36.790Z,88.07
2022-11-24T07:37:36.703Z,88.08
2022-11-24T07:38:36.778Z,88.09
2022-11-24T07:39:36.688Z,88.13
2022-11-24T07:40:36.757Z,88.18
2022-11-24T07:41:36.641Z,87.96
2022-11-24T07:42:36.717Z,88.09
2022-11-24T07:43:36.630Z,87.85
2022-11-24T07:44:37.077Z,87.75
2022-11-24T07:45:36.630Z,87.45
2022-11-24T07:46:36.661Z,87.31
2022-11-24T07:47:36.569Z,87.42
2022-11-24T07:48:36.655Z,87.27
2022-11-24T07:49:36.534Z,87.28
2022-11-24T07:50:36.613Z,86.97
2022-11-24T07:51:36.518Z,86.93
2022-11-24T07:52:36.579Z,87.14
2022-11-24T07:53:36.482Z,87.34
2022-11-24T07:54:36.835Z,86.97
2022-11-24T07:55:36.472Z,87.03
2022-11-24T07:56:36.761Z,87.31
2022-11-24T07:57:36.435Z,87.25
2022-11-24T07:58:36.508Z,86.96
2022-11-24T07:59:36.411Z,86.94
2022-11-24T08:00:36.506Z,86.96
2022-11-24T08:01:36.397Z,87.04
2022-11-24T08:02:36.445Z,87.19
2022-11-24T08:03:36.453Z,86.69
2022-11-24T08:04:36.676Z,86.78
2022-11-24T08:05:38.434Z,86.97
2022-11-24T08:06:40.977Z,87.06
2022-11-24T08:07:36.353Z,87.01
2022-11-24T08:08:36.393Z,86.97
2022-11-24T08:09:36.283Z,86.79
2022-11-24T08:35:34.894Z,84.90
2022-11-24T08:36:36.039Z,85.03
2022-11-24T08:37:35.906Z,85.13
2022-11-24T08:38:35.971Z,84.88
2022-11-24T08:39:35.890Z,84.84
2022-11-24T08:40:35.948Z,84.92
2022-11-24T08:41:35.892Z,84.33
2022-11-24T08:42:35.939Z,84.60
2022-11-24T08:43:35.820Z,84.90
2022-11-24T08:44:36.506Z,84.31
2022-11-24T08:45:41.188Z,84.41
2022-11-24T09:06:34.568Z,84.51
2022-11-24T09:07:35.663Z,84.58
2022-11-24T09:08:35.488Z,84.31
2022-11-24T09:09:35.571Z,84.33
2022-11-24T09:10:35.456Z,84.35
2022-11-24T09:11:35.668Z,84.03
2022-11-24T09:12:35.443Z,83.96
2022-11-24T09:13:35.500Z,84.16
2022-11-24T09:14:35.813Z,83.96
2022-11-24T09:15:35.455Z,84.25
2022-11-24T09:45:57.568Z,86.39
2022-11-24T09:46:35.143Z,86.50
2022-11-24T09:47:34.946Z,86.62
2022-11-24T10:27:33.379Z,80.79
2022-11-24T10:29:33.634Z,80.24
2022-11-24T10:30:34.450Z,79.99
2022-11-24T10:31:34.445Z,80.05
2022-11-24T10:32:34.424Z,79.84
2022-11-24T10:33:34.338Z,79.33
2022-11-24T10:34:34.395Z,79.38
2022-11-24T10:35:34.297Z,79.53
2022-11-24T10:36:34.399Z,79.36
2022-11-24T10:37:34.287Z,79.67
2022-11-24T10:38:34.366Z,79.26
2022-11-24T10:39:34.556Z,79.59
2022-11-24T10:40:57.861Z,79.31
2022-11-24T10:41:34.227Z,78.87
2022-11-24T10:42:34.296Z,78.80
2022-11-24T10:43:34.202Z,78.68
2022-11-24T10:44:34.291Z,78.83
2022-11-24T10:45:34.165Z,78.32
2022-11-24T10:46:39.183Z,77.91
2022-11-24T10:47:34.150Z,77.44
2022-11-24T10:48:34.226Z,77.36
2022-11-24T10:49:34.573Z,75.94
2022-11-24T10:50:35.177Z,76.05
2022-11-24T10:51:34.189Z,75.90
2022-11-24T10:52:34.075Z,76.39
2022-11-24T10:53:34.137Z,75.50
2022-11-24T10:54:34.059Z,74.61
2022-11-24T10:55:34.122Z,74.80
2022-11-24T10:56:34.015Z,75.16
2022-11-24T10:57:34.084Z,74.91
2022-11-24T10:58:37.783Z,74.73
2022-11-24T10:59:34.351Z,74.51
2022-11-24T11:00:33.979Z,74.78
2022-11-24T11:02:33.092Z,75.19
2022-11-24T11:03:33.991Z,74.68
2022-11-24T11:04:33.920Z,75.12
2022-11-24T11:05:33.980Z,75.04
2022-11-24T11:06:33.897Z,75.57
2022-11-24T11:07:34.004Z,75.34
2022-11-24T11:08:33.879Z,75.30
2022-11-24T11:09:34.240Z,75.50
2022-11-24T11:10:33.829Z,75.74
2022-11-24T11:11:33.903Z,76.15
2022-11-24T11:12:43.878Z,75.80
2022-11-24T11:13:34.071Z,75.99
2022-11-24T11:14:33.789Z,75.98
2022-11-24T11:20:00.088Z,76.08
2022-11-24T11:20:38.382Z,76.00
2022-11-24T11:21:33.706Z,76.42
2022-11-24T11:28:32.868Z,75.55
2022-11-24T11:31:37.128Z,74.99
2022-11-24T11:34:32.479Z,74.89
2022-11-24T11:35:33.571Z,74.41
2022-11-24T11:36:33.504Z,74.29
2022-11-24T11:37:33.729Z,74.28
2022-11-24T11:38:33.451Z,74.05
2022-11-24T11:39:37.913Z,73.42
2022-11-24T11:40:33.440Z,73.67
2022-11-24T11:41:33.506Z,74.21
2022-11-24T11:43:32.463Z,74.33
2022-11-24T11:44:33.907Z,74.39
2022-11-24T11:45:33.442Z,74.65
2022-11-24T11:51:32.471Z,74.16
2022-11-24T11:52:33.371Z,74.62
2022-11-24T11:53:33.284Z,74.75
2022-11-24T12:09:32.099Z,72.54
2022-11-24T12:10:33.110Z,72.85
2022-11-24T12:11:33.003Z,73.13
2022-11-24T12:19:32.175Z,70.70
2022-11-24T12:20:32.989Z,70.84
2022-11-24T12:41:41.578Z,64.68
2022-11-24T12:42:32.673Z,64.67
2022-11-24T12:43:32.586Z,65.26
2022-11-24T13:11:31.171Z,63.51
2022-11-24T13:12:32.282Z,63.71
2022-11-24T13:13:32.183Z,63.48
2022-11-24T13:14:32.570Z,63.39
2022-11-24T13:15:45.686Z,63.35
2022-11-24T13:24:23.888Z,64.01
2022-11-24T13:24:30.347Z,65.56
2022-11-24T13:25:30.270Z,65.70
2022-11-24T13:26:30.328Z,65.80
2022-11-24T13:27:30.234Z,65.94
2022-11-24T13:29:01.361Z,66.08
2022-11-24T13:29:30.217Z,66.17
2022-11-24T13:30:30.277Z,66.18
2022-11-24T13:31:30.312Z,66.50
2022-11-24T13:37:34.449Z,66.75
2022-11-24T13:38:30.173Z,66.40
2022-11-24T13:39:30.064Z,66.09
2022-11-24T13:40:30.148Z,66.05
2022-11-24T13:41:30.039Z,65.18
2022-11-24T13:42:41.734Z,65.12
2022-11-24T13:43:30.014Z,65.18
2022-11-24T13:44:30.087Z,65.61
2022-11-24T13:45:29.987Z,65.11
2022-11-24T13:46:30.119Z,65.56
2022-11-24T13:47:29.971Z,65.43
2022-11-24T13:48:30.022Z,65.61
2022-11-24T13:49:29.936Z,65.72
2022-11-24T13:50:30.018Z,66.07
2022-11-24T13:51:29.917Z,65.83
2022-11-24T13:52:29.995Z,65.82
2022-11-24T13:53:29.888Z,65.50
2022-11-24T13:54:29.962Z,65.62
2022-11-24T13:55:29.922Z,65.74
2022-11-24T13:56:30.569Z,65.81
2022-11-24T13:57:29.830Z,65.72
2022-11-24T13:58:29.901Z,65.98
2022-11-24T13:59:29.819Z,65.98
2022-11-24T14:00:29.854Z,65.96
2022-11-24T14:01:29.866Z,66.56
2022-11-24T14:02:29.871Z,66.71
2022-11-24T14:03:29.757Z,66.37
2022-11-24T14:04:32.092Z,66.40
2022-11-24T14:05:29.717Z,66.72
2022-11-24T14:06:29.809Z,66.71
2022-11-24T14:07:29.708Z,66.70
2022-11-24T14:08:29.755Z,66.86
2022-11-24T14:09:29.668Z,66.92
2022-11-24T14:10:30.731Z,67.06
2022-11-24T14:11:29.727Z,67.42
2022-11-24T14:12:29.616Z,67.37
2022-11-24T14:13:29.699Z,67.62
2022-11-24T14:14:29.598Z,67.41
2022-11-24T14:15:29.659Z,67.25
2022-11-24T14:16:29.656Z,67.37
2022-11-24T14:17:29.648Z,67.50
2022-11-24T14:18:29.551Z,67.63
2022-11-24T14:19:32.248Z,67.47
2022-11-24T14:20:29.507Z,67.53
2022-11-24T14:21:29.584Z,67.50
2022-11-24T14:22:29.497Z,67.45
2022-11-24T14:23:29.553Z,67.57
2022-11-24T14:24:29.457Z,68.13
2022-11-24T14:25:29.524Z,67.48
2022-11-24T14:26:29.418Z,67.33
2022-11-24T14:27:30.485Z,67.56
2022-11-24T14:28:29.533Z,67.61
2022-11-24T14:29:29.382Z,67.75
2022-11-24T14:30:29.454Z,67.57
2022-11-24T14:31:29.399Z,67.21
2022-11-24T14:32:29.425Z,67.20
2022-11-24T14:33:29.343Z,67.32
2022-11-24T14:34:29.539Z,67.32
2022-11-24T14:35:29.423Z,67.39
2022-11-24T14:36:29.365Z,67.51
2022-11-24T14:37:29.277Z,67.27
2022-11-24T14:38:29.346Z,67.19
2022-11-24T14:39:29.261Z,67.55
